sensor_id;sensor_type;location;lat;lon;timestamp;P1;durP1;ratioP1;P2;durP2;ratioP2
31716;SDS011;18301;51.076;17.046;2023-04-19T00:00:22;21.63;;;13.45;;
31716;SDS011;18301;51.076;17.046;2023-04-19T00:05:24;21.20;;;12.93;;
31716;SDS011;18301;51.076;17.046;2023-04-19T00:10:26;21.80;;;11.98;;
31716;SDS011;18301;51.076;17.046;2023-04-19T00:15:28;17.55;;;11.18;;
31716;SDS011;18301;51.076;17.046;2023-04-19T00:20:30;17.55;;;11.60;;
31716;SDS011;18301;51.076;17.046;2023-04-19T00:25:31;17.45;;;11.65;;
31716;SDS011;18301;51.076;17.046;2023-04-19T00:30:34;18.45;;;11.70;;
31716;SDS011;18301;51.076;17.046;2023-04-19T00:35:36;22.23;;;12.68;;
31716;SDS011;18301;51.076;17.046;2023-04-19T00:40:37;20.08;;;12.27;;
31716;SDS011;18301;51.076;17.046;2023-04-19T00:45:39;17.58;;;11.25;;
31716;SDS011;18301;51.076;17.046;2023-04-19T00:50:41;15.82;;;10.95;;
31716;SDS011;18301;51.076;17.046;2023-04-19T00:55:44;20.40;;;11.48;;
31716;SDS011;18301;51.076;17.046;2023-04-19T01:00:45;14.95;;;9.85;;
31716;SDS011;18301;51.076;17.046;2023-04-19T01:05:47;15.38;;;10.50;;
31716;SDS011;18301;51.076;17.046;2023-04-19T01:10:50;16.02;;;9.25;;
31716;SDS011;18301;51.076;17.046;2023-04-19T01:15:51;15.52;;;10.18;;
31716;SDS011;18301;51.076;17.046;2023-04-19T01:20:53;16.42;;;9.43;;
31716;SDS011;18301;51.076;17.046;2023-04-19T01:25:54;16.90;;;11.52;;
31716;SDS011;18301;51.076;17.046;2023-04-19T01:30:56;16.27;;;10.45;;
31716;SDS011;18301;51.076;17.046;2023-04-19T01:35:57;17.30;;;10.75;;
31716;SDS011;18301;51.076;17.046;2023-04-19T01:40:59;15.52;;;10.63;;
31716;SDS011;18301;51.076;17.046;2023-04-19T01:46:00;16.02;;;10.20;;
31716;SDS011;18301;51.076;17.046;2023-04-19T01:51:02;17.05;;;10.00;;
31716;SDS011;18301;51.076;17.046;2023-04-19T01:56:03;14.80;;;9.63;;
31716;SDS011;18301;51.076;17.046;2023-04-19T02:01:05;16.75;;;9.40;;
31716;SDS011;18301;51.076;17.046;2023-04-19T02:06:13;15.48;;;8.43;;
31716;SDS011;18301;51.076;17.046;2023-04-19T02:11:14;13.05;;;7.72;;
31716;SDS011;18301;51.076;17.046;2023-04-19T02:16:16;12.00;;;7.13;;
31716;SDS011;18301;51.076;17.046;2023-04-19T02:21:17;14.00;;;8.05;;
31716;SDS011;18301;51.076;17.046;2023-04-19T02:26:18;11.90;;;7.70;;
31716;SDS011;18301;51.076;17.046;2023-04-19T02:31:20;13.27;;;7.80;;
31716;SDS011;18301;51.076;17.046;2023-04-19T02:36:22;11.57;;;7.43;;
31716;SDS011;18301;51.076;17.046;2023-04-19T02:41:23;11.57;;;6.53;;
31716;SDS011;18301;51.076;17.046;2023-04-19T02:46:25;10.95;;;6.57;;
31716;SDS011;18301;51.076;17.046;2023-04-19T02:51:26;10.38;;;5.97;;
31716;SDS011;18301;51.076;17.046;2023-04-19T02:56:28;10.60;;;6.45;;
31716;SDS011;18301;51.076;17.046;2023-04-19T03:01:30;9.30;;;6.32;;
31716;SDS011;18301;51.076;17.046;2023-04-19T03:06:32;13.23;;;7.25;;
31716;SDS011;18301;51.076;17.046;2023-04-19T03:11:33;10.10;;;6.60;;
31716;SDS011;18301;51.076;17.046;2023-04-19T03:16:35;10.40;;;6.50;;
31716;SDS011;18301;51.076;17.046;2023-04-19T03:21:38;12.75;;;5.40;;
31716;SDS011;18301;51.076;17.046;2023-04-19T03:26:40;9.05;;;5.72;;
31716;SDS011;18301;51.076;17.046;2023-04-19T03:31:41;9.20;;;5.47;;
31716;SDS011;18301;51.076;17.046;2023-04-19T03:36:43;9.85;;;5.43;;
31716;SDS011;18301;51.076;17.046;2023-04-19T03:41:44;9.38;;;5.43;;
31716;SDS011;18301;51.076;17.046;2023-04-19T03:46:46;13.63;;;5.82;;
31716;SDS011;18301;51.076;17.046;2023-04-19T03:51:48;9.38;;;6.07;;
31716;SDS011;18301;51.076;17.046;2023-04-19T03:56:50;10.27;;;5.57;;
31716;SDS011;18301;51.076;17.046;2023-04-19T04:01:52;9.93;;;6.20;;
31716;SDS011;18301;51.076;17.046;2023-04-19T04:06:53;11.82;;;5.05;;
31716;SDS011;18301;51.076;17.046;2023-04-19T04:11:54;8.13;;;5.13;;
31716;SDS011;18301;51.076;17.046;2023-04-19T04:16:56;8.25;;;5.20;;
31716;SDS011;18301;51.076;17.046;2023-04-19T04:21:57;8.50;;;5.03;;
31716;SDS011;18301;51.076;17.046;2023-04-19T04:26:59;9.45;;;4.93;;
31716;SDS011;18301;51.076;17.046;2023-04-19T04:32:01;9.30;;;4.32;;
31716;SDS011;18301;51.076;17.046;2023-04-19T04:37:03;8.98;;;4.47;;
31716;SDS011;18301;51.076;17.046;2023-04-19T04:42:05;8.77;;;4.85;;
31716;SDS011;18301;51.076;17.046;2023-04-19T04:47:08;9.65;;;4.82;;
31716;SDS011;18301;51.076;17.046;2023-04-19T04:52:12;9.65;;;4.93;;
31716;SDS011;18301;51.076;17.046;2023-04-19T04:57:14;11.80;;;5.25;;
31716;SDS011;18301;51.076;17.046;2023-04-19T05:02:16;10.77;;;4.78;;
31716;SDS011;18301;51.076;17.046;2023-04-19T05:07:17;7.25;;;4.72;;
31716;SDS011;18301;51.076;17.046;2023-04-19T05:12:19;7.80;;;5.07;;
31716;SDS011;18301;51.076;17.046;2023-04-19T05:17:20;7.38;;;4.60;;
31716;SDS011;18301;51.076;17.046;2023-04-19T05:22:22;8.90;;;4.50;;
31716;SDS011;18301;51.076;17.046;2023-04-19T05:27:23;9.20;;;4.85;;
31716;SDS011;18301;51.076;17.046;2023-04-19T05:32:25;6.47;;;4.55;;
31716;SDS011;18301;51.076;17.046;2023-04-19T05:37:27;11.23;;;4.90;;
31716;SDS011;18301;51.076;17.046;2023-04-19T05:42:30;10.43;;;4.50;;
31716;SDS011;18301;51.076;17.046;2023-04-19T05:47:32;11.02;;;5.05;;
31716;SDS011;18301;51.076;17.046;2023-04-19T05:52:33;9.32;;;4.50;;
31716;SDS011;18301;51.076;17.046;2023-04-19T05:57:35;9.63;;;4.68;;
31716;SDS011;18301;51.076;17.046;2023-04-19T06:02:36;7.30;;;4.65;;
31716;SDS011;18301;51.076;17.046;2023-04-19T06:07:41;8.50;;;4.35;;
31716;SDS011;18301;51.076;17.046;2023-04-19T06:12:54;7.72;;;4.10;;
31716;SDS011;18301;51.076;17.046;2023-04-19T06:17:55;6.93;;;4.15;;
31716;SDS011;18301;51.076;17.046;2023-04-19T06:23:00;8.18;;;4.68;;
31716;SDS011;18301;51.076;17.046;2023-04-19T06:28:01;10.18;;;4.85;;
31716;SDS011;18301;51.076;17.046;2023-04-19T06:33:03;8.07;;;4.50;;
31716;SDS011;18301;51.076;17.046;2023-04-19T06:38:04;11.23;;;4.90;;
31716;SDS011;18301;51.076;17.046;2023-04-19T06:43:06;7.35;;;4.20;;
31716;SDS011;18301;51.076;17.046;2023-04-19T06:48:07;8.00;;;4.53;;
31716;SDS011;18301;51.076;17.046;2023-04-19T06:53:09;7.35;;;4.22;;
31716;SDS011;18301;51.076;17.046;2023-04-19T06:58:11;11.38;;;4.55;;
31716;SDS011;18301;51.076;17.046;2023-04-19T07:03:12;9.32;;;4.60;;
31716;SDS011;18301;51.076;17.046;2023-04-19T07:08:14;8.80;;;4.70;;
31716;SDS011;18301;51.076;17.046;2023-04-19T07:13:16;7.97;;;4.78;;
31716;SDS011;18301;51.076;17.046;2023-04-19T07:18:17;8.45;;;4.55;;
31716;SDS011;18301;51.076;17.046;2023-04-19T07:23:19;9.70;;;4.95;;
31716;SDS011;18301;51.076;17.046;2023-04-19T07:28:20;15.13;;;5.10;;
31716;SDS011;18301;51.076;17.046;2023-04-19T07:33:22;8.93;;;5.25;;
31716;SDS011;18301;51.076;17.046;2023-04-19T07:38:28;9.70;;;5.05;;
31716;SDS011;18301;51.076;17.046;2023-04-19T07:43:29;11.52;;;5.82;;
31716;SDS011;18301;51.076;17.046;2023-04-19T07:48:31;8.45;;;5.65;;
31716;SDS011;18301;51.076;17.046;2023-04-19T07:53:32;10.35;;;5.70;;
31716;SDS011;18301;51.076;17.046;2023-04-19T07:58:34;9.77;;;5.50;;
31716;SDS011;18301;51.076;17.046;2023-04-19T08:03:36;11.15;;;5.45;;
31716;SDS011;18301;51.076;17.046;2023-04-19T08:08:38;9.27;;;5.93;;
31716;SDS011;18301;51.076;17.046;2023-04-19T08:13:40;8.75;;;5.88;;
31716;SDS011;18301;51.076;17.046;2023-04-19T08:18:46;10.25;;;5.88;;
31716;SDS011;18301;51.076;17.046;2023-04-19T08:23:51;12.57;;;5.88;;
31716;SDS011;18301;51.076;17.046;2023-04-19T08:28:55;8.93;;;5.32;;
31716;SDS011;18301;51.076;17.046;2023-04-19T08:33:57;9.55;;;5.53;;
31716;SDS011;18301;51.076;17.046;2023-04-19T08:39:00;10.13;;;5.95;;
31716;SDS011;18301;51.076;17.046;2023-04-19T08:44:09;7.78;;;5.75;;
31716;SDS011;18301;51.076;17.046;2023-04-19T08:49:12;10.38;;;6.10;;
31716;SDS011;18301;51.076;17.046;2023-04-19T08:54:15;11.00;;;6.65;;
31716;SDS011;18301;51.076;17.046;2023-04-19T08:59:18;11.20;;;6.38;;
31716;SDS011;18301;51.076;17.046;2023-04-19T09:04:20;8.93;;;6.68;;
31716;SDS011;18301;51.076;17.046;2023-04-19T09:09:37;9.90;;;6.65;;
31716;SDS011;18301;51.076;17.046;2023-04-19T09:15:00;11.82;;;6.75;;
31716;SDS011;18301;51.076;17.046;2023-04-19T09:20:05;10.13;;;6.25;;
31716;SDS011;18301;51.076;17.046;2023-04-19T09:25:07;15.00;;;7.15;;
31716;SDS011;18301;51.076;17.046;2023-04-19T09:30:12;15.52;;;7.18;;
31716;SDS011;18301;51.076;17.046;2023-04-19T09:35:43;9.03;;;6.47;;
31716;SDS011;18301;51.076;17.046;2023-04-19T09:40:48;10.98;;;6.80;;
31716;SDS011;18301;51.076;17.046;2023-04-19T09:45:50;13.75;;;7.07;;
31716;SDS011;18301;51.076;17.046;2023-04-19T09:50:53;12.25;;;6.78;;
31716;SDS011;18301;51.076;17.046;2023-04-19T09:56:03;11.65;;;7.15;;
31716;SDS011;18301;51.076;17.046;2023-04-19T10:01:08;9.85;;;5.53;;
31716;SDS011;18301;51.076;17.046;2023-04-19T10:06:17;11.48;;;7.15;;
31716;SDS011;18301;51.076;17.046;2023-04-19T10:11:22;13.75;;;7.20;;
31716;SDS011;18301;51.076;17.046;2023-04-19T10:16:28;11.93;;;7.25;;
31716;SDS011;18301;51.076;17.046;2023-04-19T10:21:30;15.25;;;7.53;;
31716;SDS011;18301;51.076;17.046;2023-04-19T10:32:04;13.95;;;7.30;;
31716;SDS011;18301;51.076;17.046;2023-04-19T10:37:09;10.15;;;6.75;;
31716;SDS011;18301;51.076;17.046;2023-04-19T10:42:11;11.82;;;6.72;;
31716;SDS011;18301;51.076;17.046;2023-04-19T10:47:13;11.38;;;7.03;;
31716;SDS011;18301;51.076;17.046;2023-04-19T10:52:44;11.52;;;6.82;;
31716;SDS011;18301;51.076;17.046;2023-04-19T11:08:45;11.43;;;7.28;;
31716;SDS011;18301;51.076;17.046;2023-04-19T11:13:47;15.32;;;8.13;;
31716;SDS011;18301;51.076;17.046;2023-04-19T11:18:48;10.15;;;7.55;;
31716;SDS011;18301;51.076;17.046;2023-04-19T11:24:08;14.18;;;8.25;;
31716;SDS011;18301;51.076;17.046;2023-04-19T11:29:10;16.02;;;9.23;;
31716;SDS011;18301;51.076;17.046;2023-04-19T11:34:13;13.50;;;8.52;;
31716;SDS011;18301;51.076;17.046;2023-04-19T11:39:15;14.57;;;7.78;;
31716;SDS011;18301;51.076;17.046;2023-04-19T11:44:17;18.92;;;8.68;;
31716;SDS011;18301;51.076;17.046;2023-04-19T11:49:26;14.10;;;8.90;;
31716;SDS011;18301;51.076;17.046;2023-04-19T11:54:29;14.05;;;8.93;;
31716;SDS011;18301;51.076;17.046;2023-04-19T11:59:31;15.65;;;8.77;;
31716;SDS011;18301;51.076;17.046;2023-04-19T12:04:35;14.57;;;8.65;;
31716;SDS011;18301;51.076;17.046;2023-04-19T12:09:38;13.70;;;8.18;;
31716;SDS011;18301;51.076;17.046;2023-04-19T12:14:39;11.65;;;7.40;;
31716;SDS011;18301;51.076;17.046;2023-04-19T12:19:52;11.60;;;7.85;;
31716;SDS011;18301;51.076;17.046;2023-04-19T12:24:53;12.75;;;9.00;;
31716;SDS011;18301;51.076;17.046;2023-04-19T12:29:56;12.80;;;8.70;;
31716;SDS011;18301;51.076;17.046;2023-04-19T12:34:57;15.15;;;9.60;;
31716;SDS011;18301;51.076;17.046;2023-04-19T12:39:58;17.40;;;9.60;;
31716;SDS011;18301;51.076;17.046;2023-04-19T12:45:00;13.10;;;8.70;;
31716;SDS011;18301;51.076;17.046;2023-04-19T12:50:02;14.35;;;9.07;;
31716;SDS011;18301;51.076;17.046;2023-04-19T12:55:04;15.30;;;9.80;;
31716;SDS011;18301;51.076;17.046;2023-04-19T13:00:07;16.67;;;9.88;;
31716;SDS011;18301;51.076;17.046;2023-04-19T13:05:10;12.57;;;7.90;;
31716;SDS011;18301;51.076;17.046;2023-04-19T13:10:13;8.40;;;6.63;;
31716;SDS011;18301;51.076;17.046;2023-04-19T13:15:14;10.88;;;6.78;;
31716;SDS011;18301;51.076;17.046;2023-04-19T13:20:18;12.43;;;7.80;;
31716;SDS011;18301;51.076;17.046;2023-04-19T13:25:20;12.77;;;7.30;;
31716;SDS011;18301;51.076;17.046;2023-04-19T13:30:22;11.63;;;7.95;;
31716;SDS011;18301;51.076;17.046;2023-04-19T13:35:23;12.93;;;8.20;;
31716;SDS011;18301;51.076;17.046;2023-04-19T13:40:25;12.35;;;8.43;;
31716;SDS011;18301;51.076;17.046;2023-04-19T13:45:27;11.40;;;8.35;;
31716;SDS011;18301;51.076;17.046;2023-04-19T13:50:28;13.07;;;8.35;;
31716;SDS011;18301;51.076;17.046;2023-04-19T13:55:30;14.55;;;8.52;;
31716;SDS011;18301;51.076;17.046;2023-04-19T14:00:31;11.55;;;7.90;;
31716;SDS011;18301;51.076;17.046;2023-04-19T14:05:34;14.43;;;8.63;;
31716;SDS011;18301;51.076;17.046;2023-04-19T14:10:36;12.23;;;7.97;;
31716;SDS011;18301;51.076;17.046;2023-04-19T14:15:39;15.57;;;10.15;;
31716;SDS011;18301;51.076;17.046;2023-04-19T14:20:41;12.98;;;8.20;;
31716;SDS011;18301;51.076;17.046;2023-04-19T14:25:42;12.32;;;7.88;;
31716;SDS011;18301;51.076;17.046;2023-04-19T14:30:43;13.55;;;8.30;;
31716;SDS011;18301;51.076;17.046;2023-04-19T14:35:45;14.63;;;8.65;;
31716;SDS011;18301;51.076;17.046;2023-04-19T14:40:47;12.13;;;7.72;;
31716;SDS011;18301;51.076;17.046;2023-04-19T14:45:48;9.07;;;7.28;;
31716;SDS011;18301;51.076;17.046;2023-04-19T14:50:50;10.60;;;7.20;;
31716;SDS011;18301;51.076;17.046;2023-04-19T14:55:51;9.43;;;7.15;;
31716;SDS011;18301;51.076;17.046;2023-04-19T15:00:53;9.57;;;7.50;;
31716;SDS011;18301;51.076;17.046;2023-04-19T15:05:55;11.73;;;7.57;;
31716;SDS011;18301;51.076;17.046;2023-04-19T15:10:56;11.45;;;7.63;;
31716;SDS011;18301;51.076;17.046;2023-04-19T15:15:57;12.95;;;7.35;;
31716;SDS011;18301;51.076;17.046;2023-04-19T15:21:03;9.38;;;6.70;;
31716;SDS011;18301;51.076;17.046;2023-04-19T15:26:05;14.35;;;7.03;;
31716;SDS011;18301;51.076;17.046;2023-04-19T15:31:06;8.80;;;6.35;;
31716;SDS011;18301;51.076;17.046;2023-04-19T15:36:09;8.60;;;6.15;;
31716;SDS011;18301;51.076;17.046;2023-04-19T15:41:10;8.65;;;6.15;;
31716;SDS011;18301;51.076;17.046;2023-04-19T15:46:12;10.15;;;6.95;;
31716;SDS011;18301;51.076;17.046;2023-04-19T15:51:14;11.88;;;6.72;;
31716;SDS011;18301;51.076;17.046;2023-04-19T15:56:16;10.90;;;7.35;;
31716;SDS011;18301;51.076;17.046;2023-04-19T16:01:17;19.23;;;8.13;;
31716;SDS011;18301;51.076;17.046;2023-04-19T16:06:19;11.27;;;7.47;;
31716;SDS011;18301;51.076;17.046;2023-04-19T16:11:21;12.68;;;8.02;;
31716;SDS011;18301;51.076;17.046;2023-04-19T16:16:24;12.15;;;7.90;;
31716;SDS011;18301;51.076;17.046;2023-04-19T16:21:27;10.98;;;6.65;;
31716;SDS011;18301;51.076;17.046;2023-04-19T16:26:28;11.65;;;7.00;;
31716;SDS011;18301;51.076;17.046;2023-04-19T16:31:30;24.75;;;8.73;;
31716;SDS011;18301;51.076;17.046;2023-04-19T16:36:32;11.88;;;6.90;;
31716;SDS011;18301;51.076;17.046;2023-04-19T16:41:33;11.10;;;6.55;;
31716;SDS011;18301;51.076;17.046;2023-04-19T16:46:35;14.73;;;7.28;;
31716;SDS011;18301;51.076;17.046;2023-04-19T16:51:36;10.40;;;6.70;;
31716;SDS011;18301;51.076;17.046;2023-04-19T16:56:38;13.63;;;7.18;;
31716;SDS011;18301;51.076;17.046;2023-04-19T17:01:39;11.50;;;7.68;;
31716;SDS011;18301;51.076;17.046;2023-04-19T17:06:41;10.80;;;7.10;;
31716;SDS011;18301;51.076;17.046;2023-04-19T17:11:42;11.55;;;6.70;;
31716;SDS011;18301;51.076;17.046;2023-04-19T17:16:44;9.02;;;6.55;;
31716;SDS011;18301;51.076;17.046;2023-04-19T17:21:46;9.35;;;6.50;;
31716;SDS011;18301;51.076;17.046;2023-04-19T17:26:47;10.00;;;6.95;;
31716;SDS011;18301;51.076;17.046;2023-04-19T17:31:50;9.63;;;6.70;;
31716;SDS011;18301;51.076;17.046;2023-04-19T17:36:51;8.20;;;6.07;;
31716;SDS011;18301;51.076;17.046;2023-04-19T17:41:53;8.65;;;6.82;;
31716;SDS011;18301;51.076;17.046;2023-04-19T17:46:55;10.63;;;7.20;;
31716;SDS011;18301;51.076;17.046;2023-04-19T17:51:57;10.18;;;6.88;;
31716;SDS011;18301;51.076;17.046;2023-04-19T17:56:58;11.63;;;7.07;;
31716;SDS011;18301;51.076;17.046;2023-04-19T18:02:02;14.05;;;10.23;;
31716;SDS011;18301;51.076;17.046;2023-04-19T18:07:04;9.50;;;7.03;;
31716;SDS011;18301;51.076;17.046;2023-04-19T18:12:06;10.90;;;7.80;;
31716;SDS011;18301;51.076;17.046;2023-04-19T18:17:07;10.60;;;8.48;;
31716;SDS011;18301;51.076;17.046;2023-04-19T18:22:09;12.85;;;8.52;;
31716;SDS011;18301;51.076;17.046;2023-04-19T18:27:10;13.20;;;7.95;;
31716;SDS011;18301;51.076;17.046;2023-04-19T18:32:12;9.13;;;7.10;;
31716;SDS011;18301;51.076;17.046;2023-04-19T18:37:14;9.82;;;7.55;;
31716;SDS011;18301;51.076;17.046;2023-04-19T18:42:17;11.07;;;7.43;;
31716;SDS011;18301;51.076;17.046;2023-04-19T18:47:18;9.38;;;7.40;;
31716;SDS011;18301;51.076;17.046;2023-04-19T18:52:20;9.00;;;6.80;;
31716;SDS011;18301;51.076;17.046;2023-04-19T18:57:21;10.48;;;7.22;;
31716;SDS011;18301;51.076;17.046;2023-04-19T19:02:27;11.73;;;7.80;;
31716;SDS011;18301;51.076;17.046;2023-04-19T19:07:29;11.85;;;8.02;;
31716;SDS011;18301;51.076;17.046;2023-04-19T19:12:34;12.70;;;8.43;;
31716;SDS011;18301;51.076;17.046;2023-04-19T19:17:36;10.95;;;8.20;;
31716;SDS011;18301;51.076;17.046;2023-04-19T19:22:38;13.27;;;8.48;;
31716;SDS011;18301;51.076;17.046;2023-04-19T19:27:40;12.80;;;9.13;;
31716;SDS011;18301;51.076;17.046;2023-04-19T19:32:58;14.07;;;8.95;;
31716;SDS011;18301;51.076;17.046;2023-04-19T19:38:00;12.68;;;8.35;;
31716;SDS011;18301;51.076;17.046;2023-04-19T19:43:01;14.30;;;9.68;;
31716;SDS011;18301;51.076;17.046;2023-04-19T19:48:03;17.80;;;11.07;;
31716;SDS011;18301;51.076;17.046;2023-04-19T19:53:05;17.38;;;11.23;;
31716;SDS011;18301;51.076;17.046;2023-04-19T19:58:06;17.63;;;11.38;;
31716;SDS011;18301;51.076;17.046;2023-04-19T20:03:10;22.00;;;12.50;;
31716;SDS011;18301;51.076;17.046;2023-04-19T20:08:13;22.38;;;12.52;;
31716;SDS011;18301;51.076;17.046;2023-04-19T20:13:15;19.23;;;11.82;;
31716;SDS011;18301;51.076;17.046;2023-04-19T20:18:17;16.60;;;11.10;;
31716;SDS011;18301;51.076;17.046;2023-04-19T20:23:18;17.38;;;10.73;;
31716;SDS011;18301;51.076;17.046;2023-04-19T20:28:21;18.20;;;10.70;;
31716;SDS011;18301;51.076;17.046;2023-04-19T20:33:23;17.70;;;10.90;;
31716;SDS011;18301;51.076;17.046;2023-04-19T20:38:24;20.55;;;12.43;;
31716;SDS011;18301;51.076;17.046;2023-04-19T20:43:29;18.88;;;11.13;;
31716;SDS011;18301;51.076;17.046;2023-04-19T20:48:30;19.20;;;11.43;;
31716;SDS011;18301;51.076;17.046;2023-04-19T20:53:32;16.20;;;10.60;;
31716;SDS011;18301;51.076;17.046;2023-04-19T20:58:35;15.38;;;10.38;;
31716;SDS011;18301;51.076;17.046;2023-04-19T21:03:37;16.15;;;10.27;;
31716;SDS011;18301;51.076;17.046;2023-04-19T21:08:39;14.40;;;9.90;;
31716;SDS011;18301;51.076;17.046;2023-04-19T21:13:41;13.75;;;9.60;;
31716;SDS011;18301;51.076;17.046;2023-04-19T21:18:42;16.98;;;11.05;;
31716;SDS011;18301;51.076;17.046;2023-04-19T21:23:44;15.57;;;10.40;;
31716;SDS011;18301;51.076;17.046;2023-04-19T21:28:45;15.95;;;10.23;;
31716;SDS011;18301;51.076;17.046;2023-04-19T21:33:47;16.33;;;10.75;;
31716;SDS011;18301;51.076;17.046;2023-04-19T21:38:48;17.17;;;10.20;;
31716;SDS011;18301;51.076;17.046;2023-04-19T21:43:50;17.05;;;10.23;;
31716;SDS011;18301;51.076;17.046;2023-04-19T21:48:51;17.20;;;9.57;;
31716;SDS011;18301;51.076;17.046;2023-04-19T21:53:56;12.50;;;8.90;;
31716;SDS011;18301;51.076;17.046;2023-04-19T21:58:57;13.82;;;8.88;;
31716;SDS011;18301;51.076;17.046;2023-04-19T22:03:58;13.88;;;9.10;;
31716;SDS011;18301;51.076;17.046;2023-04-19T22:09:02;13.38;;;8.93;;
31716;SDS011;18301;51.076;17.046;2023-04-19T22:14:05;13.55;;;9.43;;
31716;SDS011;18301;51.076;17.046;2023-04-19T22:19:08;13.63;;;8.73;;
31716;SDS011;18301;51.076;17.046;2023-04-19T22:24:10;13.40;;;8.90;;
31716;SDS011;18301;51.076;17.046;2023-04-19T22:29:11;15.38;;;9.20;;
31716;SDS011;18301;51.076;17.046;2023-04-19T22:34:13;13.90;;;9.80;;
31716;SDS011;18301;51.076;17.046;2023-04-19T22:39:14;16.73;;;10.50;;
31716;SDS011;18301;51.076;17.046;2023-04-19T22:44:16;15.68;;;10.18;;
31716;SDS011;18301;51.076;17.046;2023-04-19T22:49:17;17.23;;;10.00;;
31716;SDS011;18301;51.076;17.046;2023-04-19T22:54:22;16.10;;;10.90;;
31716;SDS011;18301;51.076;17.046;2023-04-19T22:59:23;15.98;;;10.48;;
31716;SDS011;18301;51.076;17.046;2023-04-19T23:04:25;17.63;;;11.25;;
31716;SDS011;18301;51.076;17.046;2023-04-19T23:09:27;17.67;;;11.20;;
31716;SDS011;18301;51.076;17.046;2023-04-19T23:14:29;20.23;;;12.07;;
31716;SDS011;18301;51.076;17.046;2023-04-19T23:19:31;19.20;;;11.85;;
31716;SDS011;18301;51.076;17.046;2023-04-19T23:24:32;15.88;;;11.43;;
31716;SDS011;18301;51.076;17.046;2023-04-19T23:29:36;19.38;;;11.00;;
31716;SDS011;18301;51.076;17.046;2023-04-19T23:34:37;19.02;;;11.70;;
31716;SDS011;18301;51.076;17.046;2023-04-19T23:39:39;19.58;;;13.23;;
31716;SDS011;18301;51.076;17.046;2023-04-19T23:44:40;22.77;;;13.63;;
31716;SDS011;18301;51.076;17.046;2023-04-19T23:49:44;20.80;;;12.07;;
31716;SDS011;18301;51.076;17.046;2023-04-19T23:54:45;21.55;;;13.68;;
31716;SDS011;18301;51.076;17.046;2023-04-19T23:59:47;23.35;;;14.10;;
